Time;durP1;ratioP1;P1;durP2;ratioP2;P2;SDS_P1;SDS_P2;PMS_P1;PMS_P2;Temp;Humidity;BMP_temperature;BMP_pressure;BME280_temperature;BME280_humidity;BME280_pressure;Samples;Min_cycle;Max_cycle;Signal;HPM_P1;HPM_P2
2022/08/28 00:00:22;;;;;;;;;;;;;;;25.93;62.75;99208.97;7311306;19;129803;-40
2022/08/28 00:02:48;;;;;;;;;;;;;;;25.92;62.75;99202.06;7310902;19;128807;-39
2022/08/28 00:05:16;;;;;;;;;;;;;;;25.92;62.17;99204.69;7310897;19;128772;-40
2022/08/28 00:07:41;;;;;;;;;;;;;;;25.92;62.54;99203.84;7309141;19;130146;-39
2022/08/28 00:10:07;;;;;;;;;;;;;;;25.91;62.47;99189.88;7311645;19;129226;-39
2022/08/28 00:12:34;;;;;;;;;;;;;;;25.93;62.32;99195.81;7311324;19;128824;-39
2022/08/28 00:14:59;;;;;;;;;;;;;;;25.93;62.21;99193.16;7310600;19;129255;-39
2022/08/28 00:17:27;;;;;;;;;;;;;;;25.92;62.30;99188.06;7308304;19;129915;-38
2022/08/28 00:19:53;;;;;;;;;;;;;;;25.93;62.86;99187.06;7311600;19;129237;-38
2022/08/28 00:22:18;;;;;;;;;;;;;;;25.93;62.42;99195.81;7310360;19;129079;-39
2022/08/28 00:24:44;;;;;;;;;;;;;;;25.92;62.81;99191.50;7311416;19;128776;-39
2022/08/28 00:29:54;;;;;;;;;;;;;;;25.92;62.27;99204.69;7311577;19;129326;-38
2022/08/28 00:32:22;;;;;;;;;;;;;;;25.90;62.23;99204.03;7311195;19;129459;-38
2022/08/28 00:34:47;;;;;;;;;;;;;;;25.91;62.10;99216.22;7313691;19;129593;-38
2022/08/28 00:37:13;;;;;;;;;;;;;;;25.89;62.40;99215.59;7311298;19;129472;-40
2022/08/28 00:39:38;;;;;;;;;;;;;;;25.90;62.47;99217.22;7311903;19;129527;-38
2022/08/28 00:42:04;;;;;;;;;;;;;;;25.89;62.46;99212.94;7310211;19;128697;-39
2022/08/28 00:44:30;;;;;;;;;;;;;;;25.89;62.53;99212.94;7311647;19;129023;-38
2022/08/28 00:46:57;;;;;;;;;;;;;;;25.89;62.27;99212.94;7311932;19;129334;-38
2022/08/28 00:49:24;;;;;;;;;;;;;;;25.91;62.42;99218.88;7311234;19;129733;-38
2022/08/28 00:52:11;;;;;;;;;;;;;;;25.92;62.81;99211.75;7315151;19;129165;-38
2022/08/28 00:54:42;;;;;;;;;;;;;;;25.92;62.45;99212.59;7317856;19;128797;-39
2022/08/28 00:57:09;;;;;;;;;;;;;;;25.91;62.57;99216.22;7317818;19;129337;-39
2022/08/28 00:59:35;;;;;;;;;;;;;;;25.91;62.74;99216.22;7317324;19;130715;-39
2022/08/28 01:02:00;;;;;;;;;;;;;;;25.91;62.44;99212.78;7315845;19;128969;-38
2022/08/28 01:04:27;;;;;;;;;;;;;;;25.91;62.58;99210.97;7317411;19;128973;-40
2022/08/28 01:06:54;;;;;;;;;;;;;;;25.92;62.81;99211.75;7315207;19;129156;-37
2022/08/28 01:09:20;;;;;;;;;;;;;;;25.88;62.39;99211.31;7317052;19;129444;-40
2022/08/28 01:11:47;;;;;;;;;;;;;;;25.90;62.37;99209.31;7316459;19;128875;-38
2022/08/28 01:14:14;;;;;;;;;;;;;;;25.89;62.37;99212.94;7316444;19;129196;-40
2022/08/28 01:16:40;;;;;;;;;;;;;;;25.89;62.75;99212.94;7316045;19;129233;-40
2022/08/28 01:19:08;;;;;;;;;;;;;;;25.90;62.42;99211.13;7317443;19;129852;-40
2022/08/28 01:21:33;;;;;;;;;;;;;;;25.89;62.30;99207.69;7316423;19;128949;-40
2022/08/28 01:24:01;;;;;;;;;;;;;;;25.88;62.37;99213.94;7317533;19;129045;-39
2022/08/28 01:26:27;;;;;;;;;;;;;;;25.84;62.45;99204.75;7315750;19;130173;-38
2022/08/28 01:28:53;;;;;;;;;;;;;;;25.90;62.47;99217.22;7316466;19;129307;-37
2022/08/28 01:31:19;;;;;;;;;;;;;;;25.91;62.43;99224.13;7317135;19;129432;-39
2022/08/28 01:33:45;;;;;;;;;;;;;;;25.91;62.17;99232.03;7315913;19;129399;-39
2022/08/28 01:36:11;;;;;;;;;;;;;;;25.91;62.63;99231.19;7315529;19;129527;-39
2022/08/28 01:38:37;;;;;;;;;;;;;;;25.91;62.47;99228.56;7316821;19;129293;-40
2022/08/28 01:41:02;;;;;;;;;;;;;;;25.91;62.92;99233.84;7316892;19;129123;-38
2022/08/28 01:43:30;;;;;;;;;;;;;;;25.92;62.27;99233.66;7313623;19;129092;-39
2022/08/28 01:45:58;;;;;;;;;;;;;;;25.91;62.69;99226.75;7315636;19;129567;-38
2022/08/28 01:48:24;;;;;;;;;;;;;;;25.89;62.77;99223.47;7317200;19;129733;-38
2022/08/28 01:50:50;;;;;;;;;;;;;;;25.89;62.20;99228.75;7316756;19;129064;-37
2022/08/28 01:53:16;;;;;;;;;;;;;;;25.90;62.14;99233.00;7316439;19;128835;-37
2022/08/28 01:55:41;;;;;;;;;;;;;;;25.89;62.81;99230.56;7315138;19;130916;-38
2022/08/28 01:58:07;;;;;;;;;;;;;;;25.91;62.57;99231.19;7316012;19;129596;-37
2022/08/28 02:00:32;;;;;;;;;;;;;;;25.88;62.79;99234.19;7316057;19;129158;-36
2022/08/28 02:02:58;;;;;;;;;;;;;;;25.88;62.91;99232.41;7312762;19;129276;-39
2022/08/28 02:05:24;;;;;;;;;;;;;;;25.88;62.96;99242.94;7316389;19;129364;-39
2022/08/28 02:07:51;;;;;;;;;;;;;;;25.90;63.00;99240.91;7315263;19;131305;-38
2022/08/28 02:10:16;;;;;;;;;;;;;;;25.91;62.58;99244.38;7315425;19;129093;-41
2022/08/28 02:12:42;;;;;;;;;;;;;;;25.89;62.09;99243.72;7314735;19;129222;-39
2022/08/28 02:15:08;;;;;;;;;;;;;;;25.89;62.49;99246.34;7314515;19;129665;-38
2022/08/28 02:17:33;;;;;;;;;;;;;;;25.79;62.68;99238.69;7314641;19;129595;-39
2022/08/28 02:19:58;;;;;;;;;;;;;;;25.87;63.03;99243.06;7315570;19;131429;-38
2022/08/28 02:22:24;;;;;;;;;;;;;;;25.90;62.27;99245.38;7314531;19;128929;-39
2022/08/28 02:24:49;;;;;;;;;;;;;;;25.89;62.30;99249.00;7316217;19;129282;-38
2022/08/28 02:27:14;;;;;;;;;;;;;;;25.89;62.48;99247.19;7314659;19;129437;-38
2022/08/28 02:29:39;;;;;;;;;;;;;;;25.90;62.26;99248.00;7314962;19;129048;-40
2022/08/28 02:32:05;;;;;;;;;;;;;;;25.87;62.88;99241.28;7316374;19;129011;-38
2022/08/28 02:34:31;;;;;;;;;;;;;;;25.90;62.85;99251.44;7314728;19;129538;-37
2022/08/28 02:36:57;;;;;;;;;;;;;;;25.81;62.25;99247.25;7315109;19;129450;-37
2022/08/28 02:39:22;;;;;;;;;;;;;;;25.90;62.63;99246.19;7316004;19;130055;-39
2022/08/28 02:41:47;;;;;;;;;;;;;;;25.89;62.73;99255.09;7314231;19;129591;-38
2022/08/28 02:44:12;;;;;;;;;;;;;;;25.88;62.78;99257.91;7315366;19;129710;-38
2022/08/28 02:46:38;;;;;;;;;;;;;;;25.87;62.80;99246.53;7312548;19;130920;-38
2022/08/28 02:49:03;;;;;;;;;;;;;;;25.89;63.02;99257.72;7315376;19;128949;-36
2022/08/28 02:51:29;;;;;;;;;;;;;;;25.89;63.01;99255.09;7314186;19;129191;-39
2022/08/28 02:53:55;;;;;;;;;;;;;;;25.89;62.37;99255.09;7312627;19;129489;-38
2022/08/28 02:56:20;;;;;;;;;;;;;;;25.82;63.02;99240.97;7312424;19;130014;-39
2022/08/28 02:58:46;;;;;;;;;;;;;;;25.88;62.43;99256.09;7312643;19;129236;-38
2022/08/28 03:01:12;;;;;;;;;;;;;;;25.90;62.99;99258.56;7313625;19;129044;-38
2022/08/28 03:03:38;;;;;;;;;;;;;;;25.88;62.60;99257.91;7310636;19;131298;-38
2022/08/28 03:06:03;;;;;;;;;;;;;;;25.90;62.94;99256.72;7310615;19;130472;-40
2022/08/28 03:08:31;;;;;;;;;;;;;;;25.89;62.77;99249.00;7311750;19;129994;-39
2022/08/28 03:10:56;;;;;;;;;;;;;;;25.88;63.09;99247.38;7312819;19;130501;-37
2022/08/28 03:13:22;;;;;;;;;;;;;;;25.88;62.65;99253.47;7310947;19;129260;-38
2022/08/28 03:15:47;;;;;;;;;;;;;;;25.80;63.10;99235.06;7310083;19;129138;-40
2022/08/28 03:18:13;;;;;;;;;;;;;;;25.88;63.08;99252.63;7313076;19;129959;-38
2022/08/28 03:20:39;;;;;;;;;;;;;;;25.88;62.48;99255.28;7311595;19;129218;-39
2022/08/28 03:25:50;;;;;;;;;;;;;;;25.88;62.68;99255.28;7309448;19;129441;-40
2022/08/28 03:28:15;;;;;;;;;;;;;;;25.88;62.95;99253.47;7311577;19;129226;-39
2022/08/28 03:30:41;;;;;;;;;;;;;;;25.87;62.50;99254.44;7311194;19;128965;-38
2022/08/28 03:33:06;;;;;;;;;;;;;;;25.88;62.73;99257.91;7310887;19;131148;-38
2022/08/28 03:35:31;;;;;;;;;;;;;;;25.88;62.41;99248.19;7309918;19;129796;-39
2022/08/28 03:37:57;;;;;;;;;;;;;;;25.86;63.05;99244.91;7310647;19;129184;-36
2022/08/28 03:40:22;;;;;;;;;;;;;;;25.88;63.00;99250.81;7311577;19;129910;-37
2022/08/28 03:42:47;;;;;;;;;;;;;;;25.87;63.20;99262.34;7309723;19;129734;-37
2022/08/28 03:45:13;;;;;;;;;;;;;;;25.87;62.77;99257.06;7310964;19;129682;-39
2022/08/28 03:47:39;;;;;;;;;;;;;;;25.87;62.29;99248.34;7310365;19;129211;-38
2022/08/28 03:50:04;;;;;;;;;;;;;;;25.89;62.41;99254.25;7311849;19;129992;-40
2022/08/28 03:52:30;;;;;;;;;;;;;;;25.88;62.07;99250.81;7312866;19;131240;-39
2022/08/28 03:54:55;;;;;;;;;;;;;;;25.88;62.48;99256.09;7311725;19;130072;-36
2022/08/28 03:57:21;;;;;;;;;;;;;;;25.88;63.08;99260.53;7312721;19;131200;-39
2022/08/28 03:59:47;;;;;;;;;;;;;;;25.88;63.01;99266.63;7313006;19;128852;-39
2022/08/28 04:02:13;;;;;;;;;;;;;;;25.87;62.53;99262.34;7311834;19;129580;-37
2022/08/28 04:04:38;;;;;;;;;;;;;;;25.87;62.55;99267.59;7311897;19;130351;-39
2022/08/28 04:07:03;;;;;;;;;;;;;;;25.88;62.70;99274.53;7312075;19;129816;-38
2022/08/28 04:09:29;;;;;;;;;;;;;;;25.79;62.87;99262.41;7312155;19;129347;-39
2022/08/28 04:11:54;;;;;;;;;;;;;;;25.78;62.89;99258.13;7310849;19;129175;-40
2022/08/28 04:14:19;;;;;;;;;;;;;;;25.88;63.00;99274.53;7311924;19;130196;-39
2022/08/28 04:16:45;;;;;;;;;;;;;;;25.88;62.31;99278.97;7308927;19;128899;-36
2022/08/28 04:19:10;;;;;;;;;;;;;;;25.86;62.57;99276.53;7310309;19;130203;-38
2022/08/28 04:21:35;;;;;;;;;;;;;;;25.87;62.82;99283.41;7310959;19;129122;-37
2022/08/28 04:24:01;;;;;;;;;;;;;;;25.88;62.76;99284.25;7307831;19;129721;-38
2022/08/28 04:26:26;;;;;;;;;;;;;;;25.78;63.07;99273.94;7311574;19;129172;-41
2022/08/28 04:28:53;;;;;;;;;;;;;;;25.85;63.07;99284.59;7318027;19;129878;-37
2022/08/28 04:31:18;;;;;;;;;;;;;;;25.86;63.14;99292.31;7317306;19;129308;-37
2022/08/28 04:33:43;;;;;;;;;;;;;;;25.87;62.93;99286.03;7318275;19;130699;-40
2022/08/28 04:36:11;;;;;;;;;;;;;;;25.85;63.22;99290.66;7315626;19;129451;-40
2022/08/28 04:38:36;;;;;;;;;;;;;;;25.87;62.91;99293.94;7318732;19;128835;-38
2022/08/28 04:41:05;;;;;;;;;;;;;;;25.85;62.77;99295.94;7316575;19;130545;-38
2022/08/28 04:43:31;;;;;;;;;;;;;;;25.76;62.92;99278.56;7316584;19;131838;-39
2022/08/28 04:45:56;;;;;;;;;;;;;;;25.86;62.66;99302.84;7316037;19;128929;-37
2022/08/28 04:48:21;;;;;;;;;;;;;;;25.86;62.88;99297.59;7317518;19;129204;-39
2022/08/28 04:50:48;;;;;;;;;;;;;;;25.86;62.95;99292.31;7316696;19;129005;-37
2022/08/28 04:53:14;;;;;;;;;;;;;;;25.87;62.86;99298.38;7316062;19;131415;-37
2022/08/28 04:55:47;;;;;;;;;;;;;;;25.85;62.92;99295.94;7316939;19;129285;-41
2022/08/28 04:58:13;;;;;;;;;;;;;;;25.85;63.13;99295.94;7317027;19;129473;-37
2022/08/28 05:00:39;;;;;;;;;;;;;;;25.86;62.49;99297.59;7316141;19;129339;-37
2022/08/28 05:03:04;;;;;;;;;;;;;;;25.85;62.99;99301.19;7315629;19;130447;-37
2022/08/28 05:05:30;;;;;;;;;;;;;;;25.84;63.25;99312.75;7316047;19;129438;-39
2022/08/28 05:07:55;;;;;;;;;;;;;;;25.85;62.51;99317.00;7318151;19;129216;-39
2022/08/28 05:10:21;;;;;;;;;;;;;;;25.85;62.45;99313.56;7316073;19;129509;-38
2022/08/28 05:12:46;;;;;;;;;;;;;;;25.84;62.96;99315.38;7315873;19;130773;-39
2022/08/28 05:15:12;;;;;;;;;;;;;;;25.84;62.77;99315.38;7316054;19;129156;-38
2022/08/28 05:17:38;;;;;;;;;;;;;;;25.84;62.43;99320.63;7317426;19;129081;-40
2022/08/28 05:20:04;;;;;;;;;;;;;;;25.84;62.73;99320.63;7317091;19;129639;-37
2022/08/28 05:22:30;;;;;;;;;;;;;;;25.85;63.36;99318.84;7316014;19;129436;-37
2022/08/28 05:24:55;;;;;;;;;;;;;;;25.85;62.82;99317.00;7315959;19;129623;-36
2022/08/28 05:27:23;;;;;;;;;;;;;;;25.84;63.13;99318.00;7316875;19;129266;-38
2022/08/28 05:29:48;;;;;;;;;;;;;;;25.84;62.32;99325.91;7316986;19;129991;-38
2022/08/28 05:32:13;;;;;;;;;;;;;;;25.84;62.93;99328.53;7315437;19;129891;-39
2022/08/28 05:34:39;;;;;;;;;;;;;;;25.84;63.22;99336.44;7316698;19;130469;-39
2022/08/28 05:37:05;;;;;;;;;;;;;;;25.84;62.96;99339.06;7318047;19;128864;-38
2022/08/28 05:39:30;;;;;;;;;;;;;;;25.84;62.68;99341.72;7316376;19;129378;-37
2022/08/28 05:41:55;;;;;;;;;;;;;;;25.84;62.89;99340.88;7317320;19;129855;-38
2022/08/28 05:44:21;;;;;;;;;;;;;;;25.84;62.89;99344.34;7314422;19;129642;-40
2022/08/28 05:46:47;;;;;;;;;;;;;;;25.83;62.61;99353.25;7315410;19;129425;-38
2022/08/28 05:49:12;;;;;;;;;;;;;;;25.84;63.22;99362.78;7315607;19;129171;-39
2022/08/28 05:51:38;;;;;;;;;;;;;;;25.82;62.74;99364.75;7316679;19;129716;-38
2022/08/28 05:54:04;;;;;;;;;;;;;;;25.83;62.49;99366.41;7315728;19;129894;-38
2022/08/28 05:56:31;;;;;;;;;;;;;;;25.83;63.34;99371.69;7315269;19;129193;-38
2022/08/28 05:58:58;;;;;;;;;;;;;;;25.83;63.16;99376.97;7316335;19;130129;-37
2022/08/28 06:01:28;;;;;;;;;;;;;;;25.84;62.53;99383.03;7316152;19;130666;-38
2022/08/28 06:03:55;;;;;;;;;;;;;;;25.76;62.56;99370.72;7313130;19;128934;-40
2022/08/28 06:06:23;;;;;;;;;;;;;;;25.84;63.02;99389.13;7313438;19;129327;-36
2022/08/28 06:08:50;;;;;;;;;;;;;;;25.83;63.14;99387.50;7314122;19;130237;-37
2022/08/28 06:11:18;;;;;;;;;;;;;;;25.84;62.98;99383.84;7316171;19;129346;-39
2022/08/28 06:13:43;;;;;;;;;;;;;;;25.84;63.09;99389.13;7311931;19;129604;-38
2022/08/28 06:16:09;;;;;;;;;;;;;;;25.82;63.04;99383.19;7311922;19;129293;-39
2022/08/28 06:18:34;;;;;;;;;;;;;;;25.79;63.29;99385.34;7314527;19;131297;-39
2022/08/28 06:21:01;;;;;;;;;;;;;;;25.82;62.63;99391.09;7311446;19;129943;-39
2022/08/28 06:23:27;;;;;;;;;;;;;;;25.83;62.98;99391.94;7314404;19;129164;-38
2022/08/28 06:25:52;;;;;;;;;;;;;;;25.83;63.27;99394.56;7311111;19;129010;-39
2022/08/28 06:28:22;;;;;;;;;;;;;;;25.82;62.60;99401.63;7314078;19;129559;-41
2022/08/28 06:30:49;;;;;;;;;;;;;;;25.82;63.34;99396.38;7312622;19;129278;-38
2022/08/28 06:33:17;;;;;;;;;;;;;;;25.81;63.16;99400.00;7312571;19;130028;-40
2022/08/28 06:35:43;;;;;;;;;;;;;;;25.81;63.34;99397.38;7312161;19;129699;-37
2022/08/28 06:38:09;;;;;;;;;;;;;;;25.82;63.32;99408.75;7314347;19;130156;-40
2022/08/28 06:40:41;;;;;;;;;;;;;;;25.82;63.00;99406.91;7313808;19;129284;-37
2022/08/28 06:43:07;;;;;;;;;;;;;;;25.81;63.29;99402.63;7313210;19;129364;-36
2022/08/28 06:45:32;;;;;;;;;;;;;;;25.75;63.23;99391.97;7312682;19;128950;-39
2022/08/28 06:47:58;;;;;;;;;;;;;;;25.80;62.72;99390.44;7310881;19;131226;-38
2022/08/28 06:50:23;;;;;;;;;;;;;;;25.80;63.08;99403.63;7312601;19;130924;-37
2022/08/28 06:52:48;;;;;;;;;;;;;;;25.81;63.46;99405.28;7310190;19;131809;-37
2022/08/28 06:55:13;;;;;;;;;;;;;;;25.83;62.74;99398.03;7312679;19;129170;-39
2022/08/28 06:57:39;;;;;;;;;;;;;;;25.83;63.00;99405.09;7311067;19;130476;-38
2022/08/28 07:00:04;;;;;;;;;;;;;;;25.82;62.72;99411.38;7312891;19;129444;-37
2022/08/28 07:02:30;;;;;;;;;;;;;;;25.84;63.40;99412.00;7313070;19;128928;-38
2022/08/28 07:04:55;;;;;;;;;;;;;;;25.82;62.85;99412.16;7310556;19;130333;-39
2022/08/28 07:07:20;;;;;;;;;;;;;;;25.82;62.76;99416.63;7313436;19;129246;-38
2022/08/28 07:09:46;;;;;;;;;;;;;;;25.82;63.04;99414.81;7308255;19;129581;-37
2022/08/28 07:12:15;;;;;;;;;;;;;;;25.73;62.87;99406.09;7313024;19;129723;-40
2022/08/28 07:14:40;;;;;;;;;;;;;;;25.83;62.66;99421.72;7312337;19;129694;-40
2022/08/28 07:17:06;;;;;;;;;;;;;;;25.83;63.33;99427.00;7314027;19;129071;-39
2022/08/28 07:19:32;;;;;;;;;;;;;;;25.76;62.73;99410.22;7311910;19;129683;-40
2022/08/28 07:21:57;;;;;;;;;;;;;;;25.81;63.15;99418.44;7313971;19;130576;-38
2022/08/28 07:24:22;;;;;;;;;;;;;;;25.81;62.94;99418.44;7309354;19;130986;-39
2022/08/28 07:26:47;;;;;;;;;;;;;;;25.80;63.02;99424.69;7309942;19;129096;-40
2022/08/28 07:29:13;;;;;;;;;;;;;;;25.82;63.16;99427.19;7312337;19;129517;-38
2022/08/28 07:31:42;;;;;;;;;;;;;;;25.81;63.18;99426.34;7312077;19;129760;-39
2022/08/28 07:34:08;;;;;;;;;;;;;;;25.81;63.19;99421.06;7311948;19;128932;-40
2022/08/28 07:36:34;;;;;;;;;;;;;;;25.81;63.24;99428.97;7310583;19;130057;-42
2022/08/28 07:39:00;;;;;;;;;;;;;;;25.81;63.34;99431.63;7310822;19;130302;-40
2022/08/28 07:41:27;;;;;;;;;;;;;;;25.81;63.20;99428.97;7312305;19;129045;-40
2022/08/28 07:46:37;;;;;;;;;;;;;;;25.81;63.09;99431.63;7308923;19;130368;-38
2022/08/28 07:49:03;;;;;;;;;;;;;;;25.82;63.11;99437.72;7311502;19;129610;-39
2022/08/28 07:51:28;;;;;;;;;;;;;;;25.82;62.85;99438.50;7308136;19;129142;-41
2022/08/28 07:53:56;;;;;;;;;;;;;;;25.81;63.17;99442.16;7311591;19;130614;-38
2022/08/28 07:56:21;;;;;;;;;;;;;;;25.81;63.38;99447.41;7310294;19;129377;-39
2022/08/28 07:58:47;;;;;;;;;;;;;;;25.82;62.69;99454.31;7311143;19;129128;-41
2022/08/28 08:01:12;;;;;;;;;;;;;;;25.81;62.75;99452.69;7310537;19;129715;-40
2022/08/28 08:03:37;;;;;;;;;;;;;;;25.75;62.62;99440.16;7315655;19;129360;-38
2022/08/28 08:06:04;;;;;;;;;;;;;;;25.81;63.02;99457.94;7315436;19;130321;-38
2022/08/28 08:08:30;;;;;;;;;;;;;;;25.82;63.46;99450.88;7317810;19;130243;-39
2022/08/28 08:10:59;;;;;;;;;;;;;;;25.80;62.71;99456.28;7318766;19;129124;-38
2022/08/28 08:13:25;;;;;;;;;;;;;;;25.82;63.16;99459.59;7317185;19;128990;-39
2022/08/28 08:15:50;;;;;;;;;;;;;;;25.79;62.80;99457.28;7313571;19;129512;-39
2022/08/28 08:18:16;;;;;;;;;;;;;;;25.80;62.70;99453.66;7314763;19;130612;-37
2022/08/28 08:20:41;;;;;;;;;;;;;;;25.80;62.94;99458.91;7316821;19;129747;-41
2022/08/28 08:23:06;;;;;;;;;;;;;;;25.81;62.51;99462.38;7316303;19;130766;-39
2022/08/28 08:25:32;;;;;;;;;;;;;;;25.80;63.10;99451.03;7316541;19;130414;-40
2022/08/28 08:27:57;;;;;;;;;;;;;;;25.81;63.10;99455.31;7316280;19;129770;-40
2022/08/28 08:30:22;;;;;;;;;;;;;;;25.73;63.24;99444.81;7318752;19;130199;-37
2022/08/28 08:32:49;;;;;;;;;;;;;;;25.81;62.75;99465.03;7318417;19;129438;-37
2022/08/28 08:35:16;;;;;;;;;;;;;;;25.80;63.13;99466.81;7315009;19;130448;-41
2022/08/28 08:37:41;;;;;;;;;;;;;;;25.81;63.05;99468.50;7317018;19;130034;-38
2022/08/28 08:40:07;;;;;;;;;;;;;;;25.81;63.43;99471.13;7316280;19;129341;-39
2022/08/28 08:42:32;;;;;;;;;;;;;;;25.80;62.81;99472.09;7318532;19;128996;-38
2022/08/28 08:44:59;;;;;;;;;;;;;;;25.81;63.46;99472.91;7312060;19;130630;-41
2022/08/28 08:47:36;;;;;;;;;;;;;;;25.80;62.92;99472.09;7318498;19;130357;-38
2022/08/28 08:50:01;;;;;;;;;;;;;;;25.79;63.11;99469.63;7314634;19;129555;-39
2022/08/28 08:52:34;;;;;;;;;;;;;;;25.80;62.64;99474.72;7316438;19;128933;-38
2022/08/28 08:55:05;;;;;;;;;;;;;;;25.77;62.95;99469.00;7315387;19;130152;-37
2022/08/28 08:57:31;;;;;;;;;;;;;;;25.76;62.72;99470.81;7314537;19;131231;-38
2022/08/28 08:59:56;;;;;;;;;;;;;;;25.75;63.39;99474.41;7316960;19;129128;-39
2022/08/28 09:02:26;;;;;;;;;;;;;;;25.73;63.45;99481.69;7315745;19;130944;-38
2022/08/28 09:04:58;;;;;;;;;;;;;;;25.73;62.86;99481.69;7313896;19;129057;-39
2022/08/28 09:07:32;;;;;;;;;;;;;;;25.73;62.53;99473.78;7316368;19;129905;-38
2022/08/28 09:09:57;;;;;;;;;;;;;;;25.73;62.67;99481.69;7315950;19;129228;-42
2022/08/28 09:12:26;;;;;;;;;;;;;;;25.70;62.30;99471.50;7314521;19;131352;-39
2022/08/28 09:15:13;;;;;;;;;;;;;;;25.64;62.47;99466.88;7316338;19;129469;-38
2022/08/28 09:17:57;;;;;;;;;;;;;;;25.76;62.42;99489.25;7317079;19;129482;-39
2022/08/28 09:20:24;;;;;;;;;;;;;;;25.79;62.00;99486.25;7317393;19;129141;-40
2022/08/28 09:22:49;;;;;;;;;;;;;;;25.77;62.36;99485.59;7316389;19;129383;-40
2022/08/28 09:25:33;;;;;;;;;;;;;;;25.75;62.34;99484.16;7316466;19;129601;-38
2022/08/28 09:28:05;;;;;;;;;;;;;;;25.75;62.88;99482.31;7315981;19;129553;-39
2022/08/28 09:30:31;;;;;;;;;;;;;;;25.73;62.67;99482.47;7317155;19;129484;-38
2022/08/28 09:32:59;;;;;;;;;;;;;;;25.75;62.54;99486.78;7317093;19;129467;-38
2022/08/28 09:35:32;;;;;;;;;;;;;;;25.76;62.63;99485.78;7312915;19;130045;-37
2022/08/28 09:38:18;;;;;;;;;;;;;;;25.75;62.83;99484.94;7315521;19;131992;-39
2022/08/28 09:43:30;;;;;;;;;;;;;;;25.75;62.41;99490.22;7314776;19;129361;-39
2022/08/28 09:46:01;;;;;;;;;;;;;;;25.76;62.46;99497.16;7310841;19;129637;-40
2022/08/28 09:48:39;;;;;;;;;;;;;;;25.79;62.61;99480.16;7316339;19;130352;-38
2022/08/28 09:51:07;;;;;;;;;;;;;;;25.78;62.57;99484.63;7315573;19;129292;-38
2022/08/28 09:54:02;;;;;;;;;;;;;;;25.77;62.19;99488.25;7312926;19;129137;-39
2022/08/28 09:56:29;;;;;;;;;;;;;;;25.74;62.49;99488.56;7311958;19;129246;-39
2022/08/28 09:58:58;;;;;;;;;;;;;;;25.76;62.22;99491.03;7313506;19;130264;-38
2022/08/28 10:01:32;;;;;;;;;;;;;;;25.75;62.65;99495.47;7313917;19;129216;-39
2022/08/28 10:04:16;;;;;;;;;;;;;;;25.78;62.22;99496.97;7313523;19;129925;-39
2022/08/28 10:07:08;;;;;;;;;;;;;;;25.76;62.44;99491.88;7311796;19;130421;-40
2022/08/28 10:09:35;;;;;;;;;;;;;;;25.76;62.96;99491.88;7313286;19;130303;-39
2022/08/28 10:12:20;;;;;;;;;;;;;;;25.78;62.50;99495.16;7313560;19;129265;-37
2022/08/28 10:14:48;;;;;;;;;;;;;;;25.78;62.95;99504.88;7314887;19;129020;-39
2022/08/28 10:17:24;;;;;;;;;;;;;;;25.77;62.79;99498.78;7313142;19;129309;-38
2022/08/28 10:20:00;;;;;;;;;;;;;;;25.77;62.52;99496.13;7313529;19;130760;-39
2022/08/28 10:22:25;;;;;;;;;;;;;;;25.78;63.01;99505.69;7311757;19;129081;-37
2022/08/28 10:24:56;;;;;;;;;;;;;;;25.78;63.13;99499.59;7308975;19;130007;-40
2022/08/28 10:27:40;;;;;;;;;;;;;;;25.78;62.83;99505.69;7314826;19;129111;-40
2022/08/28 10:30:06;;;;;;;;;;;;;;;25.76;62.66;99518.22;7315082;19;129625;-37
2022/08/28 10:32:37;;;;;;;;;;;;;;;25.76;62.46;99515.56;7313409;19;129636;-37
2022/08/28 10:35:03;;;;;;;;;;;;;;;25.74;62.22;99514.91;7312947;19;128905;-39
2022/08/28 10:37:35;;;;;;;;;;;;;;;25.69;61.78;99511.97;7312271;19;129741;-40
2022/08/28 10:40:07;;;;;;;;;;;;;;;25.63;61.61;99520.53;7312938;19;129603;-40
2022/08/28 10:42:39;;;;;;;;;;;;;;;25.67;62.49;99519.19;7311291;19;130533;-39
2022/08/28 10:45:08;;;;;;;;;;;;;;;25.70;62.26;99516.25;7311237;19;129274;-40
2022/08/28 10:47:36;;;;;;;;;;;;;;;25.67;61.93;99512.13;7314482;19;129573;-39
2022/08/28 10:50:14;;;;;;;;;;;;;;;25.67;62.36;99513.94;7313042;19;129770;-37
2022/08/28 10:53:03;;;;;;;;;;;;;;;25.67;61.89;99519.19;7313381;19;129116;-38
2022/08/28 10:55:33;;;;;;;;;;;;;;;25.66;61.75;99517.56;7309438;19;130914;-39
2022/08/28 10:58:09;;;;;;;;;;;;;;;25.61;62.42;99514.63;7312054;19;131011;-37
2022/08/28 11:00:34;;;;;;;;;;;;;;;25.63;62.52;99513.44;7312781;19;130507;-37
2022/08/28 11:03:07;;;;;;;;;;;;;;;25.64;62.12;99514.28;7313512;19;129415;-36
2022/08/28 11:05:36;;;;;;;;;;;;;;;25.64;62.45;99514.28;7311963;19;129101;-37
2022/08/28 11:08:05;;;;;;;;;;;;;;;25.64;61.60;99519.53;7313774;19;129720;-38
2022/08/28 11:10:30;;;;;;;;;;;;;;;25.57;62.57;99502.75;7309761;19;129931;-37
2022/08/28 11:12:55;;;;;;;;;;;;;;;25.66;61.63;99507.03;7312191;19;129532;-38
2022/08/28 11:15:27;;;;;;;;;;;;;;;25.66;62.13;99528.94;7309740;19;130051;-37
2022/08/28 11:18:07;;;;;;;;;;;;;;;25.67;62.15;99513.94;7311607;19;130618;-37
2022/08/28 11:20:33;;;;;;;;;;;;;;;25.65;62.12;99515.94;7312539;19;129741;-37
2022/08/28 11:22:58;;;;;;;;;;;;;;;25.66;61.85;99512.31;7311334;19;129666;-37
2022/08/28 11:25:42;;;;;;;;;;;;;;;25.64;61.99;99509.00;7309800;19;129299;-40
2022/08/28 11:28:22;;;;;;;;;;;;;;;25.66;62.15;99507.03;7309876;19;129797;-40
2022/08/28 11:31:08;;;;;;;;;;;;;;;25.67;62.50;99519.19;7311167;19;129706;-38
2022/08/28 11:33:36;;;;;;;;;;;;;;;25.65;61.92;99510.66;7310686;19;130363;-41
2022/08/28 11:36:03;;;;;;;;;;;;;;;25.65;62.11;99521.22;7306900;19;129316;-39
2022/08/28 11:38:54;;;;;;;;;;;;;;;25.67;62.22;99519.19;7312443;19;129037;-39
2022/08/28 11:41:29;;;;;;;;;;;;;;;25.65;61.74;99526.47;7310573;19;131008;-37
2022/08/28 11:44:12;;;;;;;;;;;;;;;25.57;62.50;99511.50;7311199;19;128860;-39
2022/08/28 11:46:38;;;;;;;;;;;;;;;25.65;61.58;99521.22;7309354;19;129101;-39
2022/08/28 11:49:26;;;;;;;;;;;;;;;25.66;62.46;99528.09;7311426;19;131248;-39
2022/08/28 11:52:09;;;;;;;;;;;;;;;25.63;62.57;99533.72;7311734;19;129414;-38
2022/08/28 11:54:56;;;;;;;;;;;;;;;25.65;62.24;99526.47;7312367;19;129175;-37
2022/08/28 11:57:30;;;;;;;;;;;;;;;25.65;61.99;99537.00;7310702;19;129145;-37
2022/08/28 11:59:56;;;;;;;;;;;;;;;25.64;62.11;99536.19;7311622;19;130427;-38
2022/08/28 12:02:34;;;;;;;;;;;;;;;25.58;62.11;99514.97;7310197;19;129380;-38
2022/08/28 12:05:00;;;;;;;;;;;;;;;25.64;62.54;99543.25;7309591;19;130372;-38
2022/08/28 12:07:32;;;;;;;;;;;;;;;25.64;61.74;99532.72;7310868;19;129126;-37
2022/08/28 12:09:58;;;;;;;;;;;;;;;25.64;62.46;99532.72;7311105;19;129156;-37
2022/08/28 12:12:23;;;;;;;;;;;;;;;25.64;62.69;99537.97;7311615;19;131004;-38
2022/08/28 12:14:54;;;;;;;;;;;;;;;25.66;61.71;99536.84;7308542;19;129931;-38
2022/08/28 12:17:19;;;;;;;;;;;;;;;25.65;61.80;99531.75;7309526;19;130029;-38
2022/08/28 12:19:49;;;;;;;;;;;;;;;25.65;61.91;99534.38;7307092;19;129682;-38
2022/08/28 12:22:16;;;;;;;;;;;;;;;25.62;61.51;99534.69;7306928;19;129825;-38
2022/08/28 12:25:04;;;;;;;;;;;;;;;25.62;62.57;99545.22;7311253;19;130122;-39
2022/08/28 12:27:30;;;;;;;;;;;;;;;25.64;62.14;99535.34;7310535;19;129160;-39
2022/08/28 12:29:57;;;;;;;;;;;;;;;25.62;62.70;99532.03;7309944;19;129623;-38
2022/08/28 12:32:22;;;;;;;;;;;;;;;25.63;62.58;99534.50;7310893;19;129998;-39
2022/08/28 12:34:49;;;;;;;;;;;;;;;25.64;62.36;99533.53;7311075;19;129332;-40
2022/08/28 12:37:33;;;;;;;;;;;;;;;25.64;62.36;99525.63;7311409;19;129032;-37
2022/08/28 12:40:03;;;;;;;;;;;;;;;25.56;62.16;99515.13;7310637;19;129186;-39
2022/08/28 12:42:31;;;;;;;;;;;;;;;25.63;62.28;99528.44;7311389;19;130461;-37
2022/08/28 12:45:01;;;;;;;;;;;;;;;25.62;61.84;99522.34;7309120;19;129108;-38
2022/08/28 12:47:27;;;;;;;;;;;;;;;25.62;62.15;99526.78;7315115;19;129198;-37
2022/08/28 12:49:52;;;;;;;;;;;;;;;25.63;62.74;99523.19;7318670;19;130091;-38